Cochituate, Massachusetts
Current Conditions -  °F | °C
As of 11:56 PM on Monday 26 Jan 2015 (Local Time) from KBED Reporting Station
Light Snow Light Snow  
Wind Chill: -3°   Ceiling: 1500
Heat Index: 15°   Visibility: 1.2mi
Dew Point: 11°   Wind: 22mph
Humidity: 84%   Direction: 20°NNE
Pressure: 29.84"   Gusts: 31mph
Location:  42.3586°N, 71.3587°W
Report Text: KBED 270456Z 02019G27KT 1 1/4SM -SN BR OVC015 M09/M12 A2984 RMK AO2 PK WND 01029/0416 SLP123 P0000 T10941117 410611139
Loading
Personal Weather Stations






























Interactive Weather Map New forecast layout! Learn more

10-Day Weather Forecast

Advertisements
Track Severe Weather on mobile